< < Back
Terminal Aerodrome Forecast


Current Version              Previous Versions:   1  2  3  4  5  6  7  8  9  

Terminal Aerodrome Forecast

079
FTUS44 KMRX 281720
TAFTYS
TAF
KTYS 281720Z 2818/2918 25004KT P6SM SKC=

Latest METAR

560
SAUS80 KWBC 282300
MTRTYS
METAR KTYS 282253Z 00000KT 10SM CLR 04/M07 A3027 RMK AO2 SLP256
T00391067


USA.gov is the U.S. government's official web portal to all federal, state and local government web resources and services.